Time;durP1;ratioP1;P1;durP2;ratioP2;P2;SDS_P1;SDS_P2;PMS_P1;PMS_P2;Temp;Humidity;BMP_temperature;BMP_pressure;BME280_temperature;BME280_humidity;BME280_pressure;Samples;Min_cycle;Max_cycle;Signal;HPM_P1;HPM_P2
2024/03/28 00:00:59;;;;;;;;;;;;;;;21.22;32.80;97738.53;4097805;29;19926;-63
2024/03/28 00:02:59;;;;;;;;;;;;;;;21.23;33.07;97729.50;4098159;29;19922;-62
2024/03/28 00:05:00;;;;;;;;;;;;;;;21.24;32.98;97739.19;4097748;29;20013;-62
2024/03/28 00:07:01;;;;;;;;;;;;;;;21.25;33.05;97740.81;4097866;29;19922;-63
2024/03/28 00:09:02;;;;;;;;;;;;;;;21.27;32.74;97744.13;4097955;29;20255;-63
2024/03/28 00:11:03;;;;;;;;;;;;;;;21.29;32.82;97750.09;4097617;29;19923;-62
2024/03/28 00:13:04;;;;;;;;;;;;;;;21.28;33.11;97761.81;4097569;29;19981;-63
2024/03/28 00:15:05;;;;;;;;;;;;;;;21.26;32.78;97763.84;4097933;29;19965;-62
2024/03/28 00:17:05;;;;;;;;;;;;;;;21.26;32.88;97765.69;4097754;29;19922;-62
2024/03/28 00:19:06;;;;;;;;;;;;;;;21.24;32.88;97773.91;4097635;29;19926;-62
2024/03/28 00:21:07;;;;;;;;;;;;;;;21.23;32.61;97775.75;4097806;29;19933;-63
2024/03/28 00:23:08;;;;;;;;;;;;;;;21.22;33.06;97775.97;4097711;29;20017;-62
2024/03/28 00:25:09;;;;;;;;;;;;;;;21.22;33.05;97776.78;4097462;29;20384;-62
2024/03/28 00:27:10;;;;;;;;;;;;;;;21.21;32.82;97769.78;4098216;28;19922;-62
2024/03/28 00:29:10;;;;;;;;;;;;;;;21.25;33.01;97770.19;4100784;29;19926;-62
2024/03/28 00:31:11;;;;;;;;;;;;;;;21.25;32.95;97772.06;4100750;29;19922;-62
2024/03/28 00:33:12;;;;;;;;;;;;;;;21.26;32.91;97774.53;4100661;29;19977;-62
2024/03/28 00:35:13;;;;;;;;;;;;;;;21.26;33.05;97774.53;4101060;29;19928;-63
2024/03/28 00:37:14;;;;;;;;;;;;;;;21.28;32.78;97771.69;4100596;29;19928;-63
2024/03/28 00:39:15;;;;;;;;;;;;;;;21.23;33.06;97769.59;4100536;29;20009;-62
2024/03/28 00:41:16;;;;;;;;;;;;;;;21.22;32.74;97765.25;4100636;29;20299;-62
2024/03/28 00:43:17;;;;;;;;;;;;;;;21.21;32.96;97764.41;4100804;29;19923;-63
2024/03/28 00:45:18;;;;;;;;;;;;;;;21.19;32.94;97757.63;4100425;29;19993;-63
2024/03/28 00:47:19;;;;;;;;;;;;;;;21.20;32.97;97767.28;4100457;29;19932;-63
2024/03/28 00:49:19;;;;;;;;;;;;;;;21.17;33.37;97747.13;4084652;29;19966;-63
2024/03/28 00:51:20;;;;;;;;;;;;;;;21.17;33.29;97749.81;4100662;29;19933;-62
2024/03/28 00:53:21;;;;;;;;;;;;;;;21.15;33.42;97735.81;4100350;29;20306;-62
2024/03/28 00:55:22;;;;;;;;;;;;;;;21.15;33.43;97735.81;4100598;29;20021;-62
2024/03/28 00:57:23;;;;;;;;;;;;;;;21.18;33.28;97737.25;4100315;29;19954;-62
2024/03/28 00:59:24;;;;;;;;;;;;;;;21.20;33.42;97736.06;4100316;29;19961;-62
2024/03/28 01:01:25;;;;;;;;;;;;;;;21.21;33.44;97728.88;4100416;29;19937;-62
2024/03/28 01:03:26;;;;;;;;;;;;;;;21.21;33.55;97723.53;4100243;29;19923;-62
2024/03/28 01:05:27;;;;;;;;;;;;;;;21.22;33.23;97720.63;4100002;29;19922;-62
2024/03/28 01:07:27;;;;;;;;;;;;;;;21.20;33.43;97717.38;4099925;29;19922;-62
2024/03/28 01:09:28;;;;;;;;;;;;;;;21.20;33.52;97716.53;4100389;29;19988;-62
2024/03/28 01:11:29;;;;;;;;;;;;;;;21.18;33.40;97692.66;4100377;29;19922;-62
2024/03/28 01:13:30;;;;;;;;;;;;;;;21.16;33.68;97677.84;4100054;29;20560;-62
2024/03/28 01:15:32;;;;;;;;;;;;;;;21.15;33.65;97660.16;4100255;29;19930;-62
2024/03/28 01:17:32;;;;;;;;;;;;;;;21.15;33.57;97670.84;4099976;29;19973;-62
2024/03/28 01:19:33;;;;;;;;;;;;;;;21.16;33.64;97664.50;4100223;29;20021;-62
2024/03/28 01:21:34;;;;;;;;;;;;;;;21.19;33.91;97650.72;4099695;29;20390;-62
2024/03/28 01:23:36;;;;;;;;;;;;;;;21.19;33.88;97659.59;4100134;29;19926;-62
2024/03/28 01:25:36;;;;;;;;;;;;;;;21.19;33.64;97666.75;4084130;29;19927;-62
2024/03/28 01:27:38;;;;;;;;;;;;;;;21.22;33.80;97677.06;4099979;29;20493;-62
2024/03/28 01:29:38;;;;;;;;;;;;;;;21.21;33.64;97670.88;4100074;29;20448;-62
2024/03/28 01:31:39;;;;;;;;;;;;;;;21.22;33.67;97677.06;4099921;29;19968;-62
2024/03/28 01:33:40;;;;;;;;;;;;;;;21.22;33.84;97672.53;4099872;29;20402;-62
2024/03/28 01:35:41;;;;;;;;;;;;;;;21.21;33.63;97673.56;4099911;29;19926;-62
2024/03/28 01:37:41;;;;;;;;;;;;;;;21.21;33.59;97657.50;4099481;29;19965;-62
2024/03/28 01:39:42;;;;;;;;;;;;;;;21.18;33.84;97665.94;4098519;28;20345;-62
2024/03/28 01:41:47;;;;;;;;;;;;;;;21.17;33.92;97666.97;4099698;29;19977;-62
2024/03/28 01:43:48;;;;;;;;;;;;;;;21.18;33.83;97671.28;4099703;29;19922;-62
2024/03/28 01:45:50;;;;;;;;;;;;;;;21.17;33.80;97676.84;4099641;29;19973;-62
2024/03/28 01:47:51;;;;;;;;;;;;;;;21.17;33.95;97682.19;4099623;29;19927;-62
2024/03/28 01:49:52;;;;;;;;;;;;;;;21.18;33.73;97675.78;4099487;29;19922;-62
2024/03/28 01:51:53;;;;;;;;;;;;;;;21.16;33.95;97684.00;4099511;29;20387;-62
2024/03/28 01:53:54;;;;;;;;;;;;;;;21.18;34.04;97687.31;4099558;29;19923;-62
2024/03/28 01:55:55;;;;;;;;;;;;;;;21.18;33.91;97692.66;4099507;29;19922;-62
2024/03/28 01:57:59;;;;;;;;;;;;;;;21.15;34.14;97693.06;4099344;29;20350;-62
2024/03/28 02:00:00;;;;;;;;;;;;;;;21.16;33.98;97685.88;4099628;29;19926;-62
2024/03/28 02:02:05;;;;;;;;;;;;;;;21.15;33.97;97677.00;4099369;29;20037;-62
2024/03/28 02:04:07;;;;;;;;;;;;;;;21.16;33.91;97691.22;4099180;29;19929;-62
2024/03/28 02:06:08;;;;;;;;;;;;;;;21.15;33.93;97693.06;4099251;29;19944;-62
2024/03/28 02:08:09;;;;;;;;;;;;;;;21.13;33.94;97683.59;4099525;29;19922;-61
2024/03/28 02:10:10;;;;;;;;;;;;;;;21.14;34.04;97678.06;4099355;29;19922;-62
2024/03/28 02:12:11;;;;;;;;;;;;;;;21.16;33.93;97680.53;4099481;29;19926;-61
2024/03/28 02:14:11;;;;;;;;;;;;;;;21.15;34.17;97690.38;4098985;29;20360;-62
2024/03/28 02:16:13;;;;;;;;;;;;;;;21.17;34.02;97674.97;4099282;29;19973;-62
2024/03/28 02:18:14;;;;;;;;;;;;;;;21.16;33.78;97670.66;4099075;29;19930;-61
2024/03/28 02:20:16;;;;;;;;;;;;;;;21.17;34.22;97671.50;4098799;29;20398;-62
2024/03/28 02:22:16;;;;;;;;;;;;;;;21.19;34.13;97669.44;4099126;29;20386;-62
2024/03/28 02:24:17;;;;;;;;;;;;;;;21.19;33.94;97678.28;4099096;29;19922;-62
2024/03/28 02:26:18;;;;;;;;;;;;;;;21.19;33.85;97680.97;4099238;29;19922;-62
2024/03/28 02:28:19;;;;;;;;;;;;;;;21.20;33.94;97673.75;4099179;29;19929;-62
2024/03/28 02:30:20;;;;;;;;;;;;;;;21.17;33.94;97669.63;4099035;29;20330;-62
2024/03/28 02:32:21;;;;;;;;;;;;;;;21.15;34.23;97674.34;4099128;29;19922;-62
2024/03/28 02:34:22;;;;;;;;;;;;;;;21.14;33.93;97687.91;4098591;29;19932;-61
2024/03/28 02:36:23;;;;;;;;;;;;;;;21.15;34.24;97684.22;4099107;29;20326;-62
2024/03/28 02:38:24;;;;;;;;;;;;;;;21.13;34.30;97679.09;4083177;29;19922;-62
2024/03/28 02:40:26;;;;;;;;;;;;;;;21.14;34.29;97683.41;4099144;29;20000;-61
2024/03/28 02:42:27;;;;;;;;;;;;;;;21.15;33.89;97681.56;4098671;29;19922;-62
2024/03/28 02:44:28;;;;;;;;;;;;;;;21.15;34.33;97679.69;4098771;29;19929;-61
2024/03/28 02:46:29;;;;;;;;;;;;;;;21.15;34.29;97684.22;4098994;29;20364;-62
2024/03/28 02:48:30;;;;;;;;;;;;;;;21.15;34.14;97687.72;4098896;29;19922;-62
2024/03/28 02:50:31;;;;;;;;;;;;;;;21.16;34.08;97683.22;4098122;28;20040;-62
2024/03/28 02:52:33;;;;;;;;;;;;;;;21.16;34.04;97694.72;4098765;29;20459;-62
2024/03/28 02:54:34;;;;;;;;;;;;;;;21.16;34.28;97693.91;4098801;29;19927;-62
2024/03/28 02:56:35;;;;;;;;;;;;;;;21.15;34.40;97698.41;4098866;29;19926;-62
2024/03/28 02:58:36;;;;;;;;;;;;;;;21.16;33.99;97704.59;4098596;29;19922;-62
2024/03/28 03:00:37;;;;;;;;;;;;;;;21.15;34.28;97706.41;4098800;29;19928;-62
2024/03/28 03:02:38;;;;;;;;;;;;;;;21.13;34.13;97702.28;4098532;29;19922;-62
2024/03/28 03:04:39;;;;;;;;;;;;;;;21.12;34.42;97698.81;4098390;29;20390;-62
2024/03/28 03:06:40;;;;;;;;;;;;;;;21.14;34.34;97706.63;4098679;29;20021;-62
2024/03/28 03:08:41;;;;;;;;;;;;;;;21.10;34.48;97703.50;4098412;29;19926;-63
2024/03/28 03:10:42;;;;;;;;;;;;;;;21.12;34.42;97711.31;4098551;29;19922;-62
2024/03/28 03:12:43;;;;;;;;;;;;;;;21.13;34.47;97700.47;4098619;29;19922;-61
2024/03/28 03:14:44;;;;;;;;;;;;;;;21.14;34.19;97693.25;4098276;29;19922;-60
2024/03/28 03:16:45;;;;;;;;;;;;;;;21.13;34.34;97703.13;4098466;29;20382;-61
2024/03/28 03:18:49;;;;;;;;;;;;;;;21.14;34.34;97699.44;4097707;29;19922;-61
2024/03/28 03:20:58;;;;;;;;;;;;;;;21.16;34.30;97696.56;4098232;29;19926;-61
2024/03/28 03:23:04;;;;;;;;;;;;;;;21.16;34.37;97696.56;4098380;29;19923;-61
2024/03/28 03:25:13;;;;;;;;;;;;;;;21.12;34.47;97700.63;4082253;29;19929;-62
2024/03/28 03:27:20;;;;;;;;;;;;;;;21.13;34.04;97711.16;4098250;29;19922;-62
2024/03/28 03:36:21;;;;;;;;;;;;;;;21.08;34.43;97724.25;4098266;29;19926;-62
2024/03/28 03:38:22;;;;;;;;;;;;;;;21.08;34.40;97726.94;4098338;29;19929;-62
2024/03/28 03:40:23;;;;;;;;;;;;;;;21.10;34.36;97756.97;4098420;29;19929;-61
2024/03/28 03:42:24;;;;;;;;;;;;;;;21.06;34.54;97747.69;4098161;29;20397;-62
2024/03/28 03:44:25;;;;;;;;;;;;;;;21.08;34.42;97758.19;4098192;29;20464;-62
2024/03/28 03:46:26;;;;;;;;;;;;;;;21.08;34.43;97750.97;4097911;29;19922;-61
2024/03/28 03:48:27;;;;;;;;;;;;;;;21.08;34.18;97756.31;4097752;29;19922;-62
2024/03/28 03:50:28;;;;;;;;;;;;;;;21.10;34.32;97761.50;4097998;29;19922;-61
2024/03/28 03:52:29;;;;;;;;;;;;;;;21.08;34.25;97750.16;4098324;29;19929;-61
2024/03/28 03:54:31;;;;;;;;;;;;;;;21.06;34.08;97766.41;4097919;29;19923;-61
2024/03/28 03:56:32;;;;;;;;;;;;;;;21.02;34.08;97782.00;4097996;29;19922;-61
2024/03/28 03:58:33;;;;;;;;;;;;;;;21.02;34.33;97765.13;4098256;29;20034;-61
2024/03/28 04:00:34;;;;;;;;;;;;;;;21.03;34.25;97772.13;4097906;29;19926;-61
2024/03/28 04:02:35;;;;;;;;;;;;;;;21.04;34.35;97776.44;4098954;28;20480;-62
2024/03/28 04:04:36;;;;;;;;;;;;;;;21.03;34.31;97783.66;4101221;29;19922;-62
2024/03/28 04:06:37;;;;;;;;;;;;;;;21.05;34.31;97794.13;4101210;29;19922;-61
2024/03/28 04:08:38;;;;;;;;;;;;;;;21.06;34.41;97795.78;4101406;29;19969;-62
2024/03/28 04:10:39;;;;;;;;;;;;;;;21.05;34.24;97813.66;4101207;29;19922;-61
2024/03/28 04:12:40;;;;;;;;;;;;;;;21.06;34.30;97814.50;4101164;29;19923;-62
2024/03/28 04:14:41;;;;;;;;;;;;;;;21.09;34.29;97823.97;4101307;29;19932;-61
2024/03/28 04:16:42;;;;;;;;;;;;;;;21.08;34.11;97833.81;4100849;29;19922;-62
2024/03/28 04:18:43;;;;;;;;;;;;;;;21.08;34.23;97841.00;4085072;29;19929;-62
2024/03/28 04:20:45;;;;;;;;;;;;;;;21.05;34.43;97859.06;4101211;29;19922;-61
2024/03/28 04:22:46;;;;;;;;;;;;;;;21.03;34.08;97865.63;4100940;29;19941;-62
2024/03/28 04:24:47;;;;;;;;;;;;;;;21.01;34.34;97873.84;4101018;29;20425;-62
2024/03/28 04:26:48;;;;;;;;;;;;;;;21.01;34.15;97875.69;4084758;29;19929;-62
2024/03/28 04:28:49;;;;;;;;;;;;;;;21.02;34.30;97891.53;4100855;29;19923;-62
2024/03/28 04:30:53;;;;;;;;;;;;;;;21.03;34.14;97895.88;4100722;29;19945;-62
2024/03/28 04:32:54;;;;;;;;;;;;;;;21.04;34.24;97902.84;4100931;29;20032;-62
2024/03/28 04:34:56;;;;;;;;;;;;;;;21.05;34.19;97907.19;4100749;29;19926;-62
2024/03/28 04:36:57;;;;;;;;;;;;;;;21.04;34.37;97916.22;4100953;29;20282;-62
2024/03/28 04:38:58;;;;;;;;;;;;;;;21.03;34.28;97911.06;4100648;29;19933;-61
2024/03/28 04:40:59;;;;;;;;;;;;;;;21.02;34.29;97912.91;4100845;29;19922;-62
2024/03/28 04:43:00;;;;;;;;;;;;;;;21.01;34.19;97921.94;4100616;29;19933;-61
2024/03/28 04:45:01;;;;;;;;;;;;;;;21.01;34.29;97929.97;4100231;29;19926;-62
2024/03/28 04:47:02;;;;;;;;;;;;;;;21.01;34.30;97924.63;4100721;29;19922;-63
2024/03/28 04:49:03;;;;;;;;;;;;;;;21.00;33.90;97938.19;4084989;29;19923;-63
2024/03/28 04:51:04;;;;;;;;;;;;;;;20.99;34.05;97939.19;4100644;29;19926;-61
2024/03/28 04:53:05;;;;;;;;;;;;;;;20.98;34.14;97946.38;4100550;29;19923;-62
2024/03/28 04:55:06;;;;;;;;;;;;;;;20.95;34.32;97951.25;4100673;29;19923;-61
2024/03/28 04:57:08;;;;;;;;;;;;;;;20.96;34.24;97952.91;4100473;29;20425;-60
2024/03/28 04:59:09;;;;;;;;;;;;;;;20.97;34.05;97966.06;4100368;29;19922;-61
2024/03/28 05:01:10;;;;;;;;;;;;;;;20.99;34.14;97966.72;4100578;29;19928;-61
2024/03/28 05:03:11;;;;;;;;;;;;;;;21.00;34.01;97980.94;4100687;29;19926;-62
2024/03/28 05:05:13;;;;;;;;;;;;;;;21.01;33.97;97993.25;4100481;29;19922;-61
2024/03/28 05:07:15;;;;;;;;;;;;;;;21.00;34.10;97991.63;4100450;29;20080;-61
2024/03/28 05:09:16;;;;;;;;;;;;;;;21.00;34.09;98000.44;4100271;29;19922;-61
2024/03/28 05:11:17;;;;;;;;;;;;;;;21.00;34.04;98000.44;4100236;29;19922;-61
2024/03/28 05:13:19;;;;;;;;;;;;;;;20.98;34.02;98002.47;4100227;28;19928;-61
2024/03/28 05:15:20;;;;;;;;;;;;;;;20.97;33.97;98005.34;4100054;29;19922;-61
2024/03/28 05:17:21;;;;;;;;;;;;;;;20.95;33.93;98010.88;4100167;29;19923;-61
2024/03/28 05:19:22;;;;;;;;;;;;;;;20.96;34.00;98017.88;4100293;29;19933;-61
2024/03/28 05:21:23;;;;;;;;;;;;;;;20.97;33.98;98024.03;4084480;29;19929;-61
2024/03/28 05:23:24;;;;;;;;;;;;;;;20.96;33.88;98038.41;4100198;29;19926;-62
2024/03/28 05:25:25;;;;;;;;;;;;;;;20.96;33.86;98025.06;4099821;29;19922;-61
2024/03/28 05:27:26;;;;;;;;;;;;;;;20.96;33.94;98039.25;4100005;29;19945;-61
2024/03/28 05:29:27;;;;;;;;;;;;;;;20.98;33.75;98041.72;4099752;29;19930;-60
2024/03/28 05:31:31;;;;;;;;;;;;;;;20.99;33.78;98054.91;4100225;29;20273;-61
2024/03/28 05:33:32;;;;;;;;;;;;;;;20.99;33.63;98060.25;4099913;29;19923;-61
2024/03/28 05:35:33;;;;;;;;;;;;;;;20.97;33.65;98056.09;4099840;29;19922;-61
2024/03/28 05:37:34;;;;;;;;;;;;;;;20.96;33.68;98063.31;4100236;29;19926;-62
2024/03/28 05:39:35;;;;;;;;;;;;;;;20.95;33.67;98063.47;4099766;29;19926;-61
2024/03/28 05:41:36;;;;;;;;;;;;;;;20.92;33.77;98061.19;4099977;29;20324;-61
2024/03/28 05:43:38;;;;;;;;;;;;;;;20.90;33.51;98067.53;4099622;29;19937;-61
2024/03/28 05:45:42;;;;;;;;;;;;;;;20.91;33.77;98073.69;4099918;29;19926;-61
2024/03/28 05:47:43;;;;;;;;;;;;;;;20.93;33.83;98070.88;4099897;29;19922;-61
2024/03/28 05:49:44;;;;;;;;;;;;;;;20.94;33.54;98075.19;4099753;29;19932;-62
2024/03/28 05:51:45;;;;;;;;;;;;;;;20.93;33.54;98081.56;4099555;29;19922;-62
2024/03/28 05:53:48;;;;;;;;;;;;;;;20.94;33.63;98069.84;4099823;29;20321;-60
2024/03/28 05:55:49;;;;;;;;;;;;;;;20.94;33.60;98081.34;4099732;29;20460;-63
2024/03/28 05:57:50;;;;;;;;;;;;;;;20.95;33.48;98072.31;4099258;29;19922;-62
2024/03/28 05:59:51;;;;;;;;;;;;;;;20.95;33.59;98082.16;4083881;29;19927;-62
2024/03/28 06:01:53;;;;;;;;;;;;;;;20.93;33.37;98073.53;4099508;29;19922;-62
2024/03/28 06:03:54;;;;;;;;;;;;;;;20.95;33.22;98087.50;4083852;29;20330;-62
2024/03/28 06:05:55;;;;;;;;;;;;;;;20.95;33.30;98084.84;4083850;29;19929;-62
2024/03/28 06:07:56;;;;;;;;;;;;;;;20.93;33.55;98078.88;4099448;29;20507;-63
2024/03/28 06:09:57;;;;;;;;;;;;;;;20.94;33.53;98077.88;4099206;29;19929;-63
2024/03/28 06:11:59;;;;;;;;;;;;;;;20.92;33.23;98098.59;4099303;29;19922;-62
2024/03/28 06:14:06;;;;;;;;;;;;;;;20.93;33.32;98092.25;4099451;29;19932;-63
2024/03/28 06:16:07;;;;;;;;;;;;;;;20.93;33.33;98092.25;4099372;29;19922;-62
2024/03/28 06:18:10;;;;;;;;;;;;;;;20.94;33.67;98096.56;4099151;29;19922;-62
2024/03/28 06:20:11;;;;;;;;;;;;;;;20.95;33.29;98100.88;4099178;29;19923;-61
2024/03/28 06:22:12;;;;;;;;;;;;;;;20.93;33.74;98100.25;4099151;29;19926;-63
2024/03/28 06:24:13;;;;;;;;;;;;;;;20.93;33.54;98103.75;4099089;29;19928;-61
2024/03/28 06:26:14;;;;;;;;;;;;;;;20.94;33.26;98093.91;4098350;28;19923;-63
2024/03/28 06:28:18;;;;;;;;;;;;;;;20.92;33.39;98107.41;4099148;29;20424;-63
2024/03/28 06:30:25;;;;;;;;;;;;;;;20.92;33.58;98119.97;4099197;29;19948;-62
2024/03/28 06:32:29;;;;;;;;;;;;;;;20.86;33.47;98119.69;4099191;29;19944;-62
2024/03/28 06:34:30;;;;;;;;;;;;;;;20.87;33.57;98116.00;4099114;29;20270;-62
2024/03/28 06:36:32;;;;;;;;;;;;;;;20.87;33.45;98116.00;4099134;29;20012;-61
2024/03/28 06:38:33;;;;;;;;;;;;;;;20.85;33.71;98123.38;4098922;29;19923;-61
2024/03/28 06:40:34;;;;;;;;;;;;;;;20.85;33.40;98117.19;4082988;29;19929;-61
2024/03/28 06:42:35;;;;;;;;;;;;;;;20.85;33.66;98114.53;4098964;29;20414;-62
2024/03/28 06:44:36;;;;;;;;;;;;;;;20.89;33.47;98123.84;4083225;29;19938;-65
2024/03/28 06:46:38;;;;;;;;;;;;;;;20.89;33.45;98121.97;4098770;29;19922;-62
2024/03/28 06:48:39;;;;;;;;;;;;;;;20.88;33.71;98132.88;4098948;29;19934;-61
2024/03/28 06:50:40;;;;;;;;;;;;;;;20.91;33.46;98132.47;4098918;29;19923;-61
2024/03/28 06:52:41;;;;;;;;;;;;;;;20.90;33.59;98142.34;4098904;29;19922;-62
2024/03/28 06:54:42;;;;;;;;;;;;;;;20.90;33.54;98152.22;4098696;29;19926;-64
2024/03/28 06:56:43;;;;;;;;;;;;;;;20.91;33.54;98156.53;4098257;29;19922;-62
2024/03/28 06:58:44;;;;;;;;;;;;;;;20.91;33.38;98164.53;4098751;29;19929;-62
2024/03/28 07:00:45;;;;;;;;;;;;;;;20.90;33.52;98165.56;4098666;29;20297;-62
2024/03/28 07:02:46;;;;;;;;;;;;;;;20.88;33.72;98171.09;4098822;29;20352;-63
2024/03/28 07:04:47;;;;;;;;;;;;;;;20.84;33.53;98169.81;4098554;29;19922;-61
2024/03/28 07:06:48;;;;;;;;;;;;;;;20.86;33.40;98172.28;4098587;29;19922;-62
2024/03/28 07:08:49;;;;;;;;;;;;;;;20.84;33.65;98180.50;4098639;29;19922;-62
2024/03/28 07:10:50;;;;;;;;;;;;;;;20.86;33.52;98193.66;4098277;29;19923;-62
2024/03/28 07:12:51;;;;;;;;;;;;;;;20.88;33.41;98196.97;4098328;29;19922;-62
2024/03/28 07:14:52;;;;;;;;;;;;;;;20.88;33.54;98197.78;4098212;29;19932;-62
2024/03/28 07:16:54;;;;;;;;;;;;;;;20.90;33.59;98205.66;4098568;29;19929;-62
2024/03/28 07:18:55;;;;;;;;;;;;;;;20.90;33.31;98211.00;4098240;29;19932;-63
2024/03/28 07:20:56;;;;;;;;;;;;;;;20.89;33.40;98214.69;4098074;29;19927;-62
2024/03/28 07:22:57;;;;;;;;;;;;;;;20.89;33.36;98228.84;4098076;29;19923;-62
2024/03/28 07:24:58;;;;;;;;;;;;;;;20.95;33.40;98231.78;4097805;29;19922;-62
2024/03/28 07:26:59;;;;;;;;;;;;;;;20.93;33.61;98234.66;4098061;29;19922;-62
2024/03/28 07:29:00;;;;;;;;;;;;;;;20.91;33.46;98234.00;4098466;29;19929;-62
2024/03/28 07:31:02;;;;;;;;;;;;;;;20.87;33.32;98222.84;4113927;28;19929;-61
2024/03/28 07:33:04;;;;;;;;;;;;;;;20.90;33.48;98216.34;4098486;29;20309;-61
2024/03/28 07:35:06;;;;;;;;;;;;;;;20.94;33.19;98222.16;4098426;29;20357;-62
2024/03/28 07:37:07;;;;;;;;;;;;;;;20.93;33.07;98233.84;4098334;28;19922;-62
2024/03/28 07:39:08;;;;;;;;;;;;;;;20.90;33.29;98241.19;4097446;29;19995;-62
2024/03/28 07:41:09;;;;;;;;;;;;;;;20.91;33.46;98236.69;4098247;29;20378;-62
2024/03/28 07:43:10;;;;;;;;;;;;;;;20.95;33.11;98247.81;4098235;29;19923;-61
2024/03/28 07:45:11;;;;;;;;;;;;;;;20.93;33.33;98241.84;4097888;29;19922;-62
2024/03/28 07:47:12;;;;;;;;;;;;;;;20.93;33.14;98252.53;4097754;29;19927;-63
2024/03/28 07:49:13;;;;;;;;;;;;;;;20.98;33.37;98247.47;4097559;29;19929;-62
2024/03/28 07:51:14;;;;;;;;;;;;;;;20.99;33.20;98257.16;4097725;29;19929;-63
2024/03/28 07:53:16;;;;;;;;;;;;;;;20.97;33.16;98253.81;4097592;29;19928;-62
2024/03/28 07:55:17;;;;;;;;;;;;;;;20.98;33.14;98252.81;4098366;29;19922;-63
2024/03/28 07:57:18;;;;;;;;;;;;;;;20.99;33.21;98259.81;4097999;29;19923;-61
2024/03/28 07:59:20;;;;;;;;;;;;;;;21.01;33.07;98265.81;4098216;29;19924;-64
2024/03/28 08:01:22;;;;;;;;;;;;;;;21.01;33.21;98272.00;4097989;29;19922;-62
2024/03/28 08:03:23;;;;;;;;;;;;;;;20.94;33.13;98272.91;4082323;29;19937;-63
2024/03/28 08:05:24;;;;;;;;;;;;;;;20.94;33.28;98271.06;4098161;29;19923;-62
2024/03/28 08:07:25;;;;;;;;;;;;;;;20.95;33.10;98283.41;4098154;29;19992;-63
2024/03/28 08:09:26;;;;;;;;;;;;;;;20.99;33.17;98283.88;4097588;29;19923;-62
2024/03/28 08:11:27;;;;;;;;;;;;;;;20.99;33.04;98289.22;4097856;29;19928;-62
2024/03/28 08:13:28;;;;;;;;;;;;;;;20.99;33.15;98270.50;4097962;29;19922;-62
2024/03/28 08:15:31;;;;;;;;;;;;;;;21.02;33.22;98275.47;4097965;29;19928;-63
2024/03/28 08:17:33;;;;;;;;;;;;;;;21.02;32.83;98268.31;4097712;29;19946;-63
2024/03/28 08:19:34;;;;;;;;;;;;;;;21.06;32.77;98266.09;4098019;29;19964;-62
2024/03/28 08:21:36;;;;;;;;;;;;;;;21.09;32.90;98281.75;4097840;29;20337;-63
2024/03/28 08:23:38;;;;;;;;;;;;;;;21.08;32.58;98293.47;4097396;29;19975;-63
2024/03/28 08:25:39;;;;;;;;;;;;;;;21.03;32.88;98286.00;4097655;29;19934;-62
2024/03/28 08:27:40;;;;;;;;;;;;;;;21.02;32.97;98294.19;4097941;29;20294;-63
2024/03/28 08:29:41;;;;;;;;;;;;;;;20.98;32.70;98314.28;4097733;29;19929;-63
2024/03/28 08:31:43;;;;;;;;;;;;;;;21.00;32.77;98318.41;4097682;29;19926;-62
2024/03/28 08:33:44;;;;;;;;;;;;;;;20.99;32.89;98324.78;4097611;29;19929;-62
2024/03/28 08:35:45;;;;;;;;;;;;;;;21.02;32.70;98326.25;4097662;29;19928;-62
2024/03/28 08:37:46;;;;;;;;;;;;;;;21.01;32.76;98336.13;4079054;29;19933;-63
2024/03/28 08:39:47;;;;;;;;;;;;;;;21.03;32.87;98347.47;4081851;29;20410;-63
2024/03/28 08:41:49;;;;;;;;;;;;;;;21.07;32.79;98353.28;4097432;29;20030;-62
2024/03/28 08:43:50;;;;;;;;;;;;;;;21.03;32.95;98354.63;4081499;29;20030;-62
2024/03/28 08:45:51;;;;;;;;;;;;;;;21.05;32.80;98348.09;4082024;29;19922;-62
2024/03/28 08:47:54;;;;;;;;;;;;;;;21.06;32.81;98359.63;4082039;29;19933;-62
2024/03/28 08:49:55;;;;;;;;;;;;;;;21.03;32.72;98359.97;4084512;29;19922;-63
2024/03/28 08:51:56;;;;;;;;;;;;;;;21.04;32.87;98357.13;4084156;29;19922;-62
2024/03/28 08:53:58;;;;;;;;;;;;;;;21.01;32.70;98359.31;4084534;29;19933;-62
2024/03/28 08:56:00;;;;;;;;;;;;;;;20.99;32.72;98359.50;4084505;29;20367;-62
2024/03/28 08:58:01;;;;;;;;;;;;;;;21.00;32.75;98355.84;4084350;29;19938;-62
2024/03/28 09:00:10;;;;;;;;;;;;;;;21.01;32.58;98370.88;4084553;29;19942;-63
2024/03/28 09:02:11;;;;;;;;;;;;;;;20.99;32.63;98364.03;4084536;29;19923;-63
2024/03/28 09:04:17;;;;;;;;;;;;;;;21.03;32.55;98381.38;4084447;29;19923;-62
2024/03/28 09:06:22;;;;;;;;;;;;;;;21.07;32.51;98382.69;4083830;29;20027;-63
2024/03/28 09:08:23;;;;;;;;;;;;;;;20.99;32.59;98364.03;4084421;29;19933;-63
2024/03/28 09:10:24;;;;;;;;;;;;;;;21.02;32.76;98393.06;4084430;29;19923;-63
2024/03/28 09:12:25;;;;;;;;;;;;;;;21.03;32.76;98386.72;4100404;29;20346;-63
2024/03/28 09:14:26;;;;;;;;;;;;;;;21.04;32.44;98385.69;4100048;29;19923;-62
2024/03/28 09:16:29;;;;;;;;;;;;;;;21.06;32.76;98387.19;4084249;29;19922;-63
2024/03/28 09:18:30;;;;;;;;;;;;;;;21.08;32.51;98391.53;4084012;29;19923;-63
2024/03/28 09:20:32;;;;;;;;;;;;;;;21.06;32.54;98384.50;4084078;29;19977;-63
2024/03/28 09:22:34;;;;;;;;;;;;;;;21.04;32.57;98399.88;4092688;29;19926;-63
2024/03/28 09:24:35;;;;;;;;;;;;;;;21.03;32.68;98394.72;4099759;29;19922;-63
2024/03/28 09:26:36;;;;;;;;;;;;;;;21.05;32.50;98427.44;4099897;29;20345;-63
2024/03/28 09:28:37;;;;;;;;;;;;;;;21.02;32.82;98411.75;4100253;29;19928;-63
2024/03/28 09:30:38;;;;;;;;;;;;;;;21.05;32.74;98411.41;4100164;29;19929;-63
2024/03/28 09:32:40;;;;;;;;;;;;;;;21.02;32.38;98414.44;4100268;29;19922;-63
2024/03/28 09:34:41;;;;;;;;;;;;;;;21.04;32.39;98405.22;4099539;29;19922;-63
2024/03/28 09:36:42;;;;;;;;;;;;;;;21.11;32.46;98396.53;4100273;29;19922;-63
2024/03/28 09:38:53;;;;;;;;;;;;;;;21.13;32.52;98394.47;4099764;29;19926;-63
2024/03/28 09:40:54;;;;;;;;;;;;;;;21.07;32.49;98398.72;4099547;29;19927;-63
2024/03/28 09:42:55;;;;;;;;;;;;;;;21.07;32.68;98404.06;4099875;29;19933;-63
2024/03/28 09:44:56;;;;;;;;;;;;;;;21.07;32.51;98412.09;4098166;29;19926;-62
2024/03/28 09:46:59;;;;;;;;;;;;;;;21.08;32.29;98389.66;4095861;29;19977;-63
2024/03/28 09:49:01;;;;;;;;;;;;;;;21.12;32.71;98406.16;4095848;28;19923;-66
2024/03/28 09:51:02;;;;;;;;;;;;;;;21.09;32.61;98402.03;4097652;29;19922;-63
2024/03/28 09:53:05;;;;;;;;;;;;;;;21.12;32.65;98419.53;4096815;28;19949;-65
2024/03/28 09:55:07;;;;;;;;;;;;;;;21.15;33.36;98424.53;4091158;29;19922;-63
2024/03/28 09:57:08;;;;;;;;;;;;;;;21.16;33.02;98434.22;4095717;28;20425;-62
2024/03/28 09:59:10;;;;;;;;;;;;;;;21.20;32.87;98448.88;4102486;28;19922;-62
2024/03/28 10:01:11;;;;;;;;;;;;;;;21.19;32.77;98442.72;4098170;29;19922;-63
2024/03/28 10:03:42;;;;;;;;;;;;;;;21.18;32.43;98453.56;4099526;29;19945;-61
2024/03/28 10:05:44;;;;;;;;;;;;;;;21.21;32.02;98440.69;4089548;28;20528;-59
2024/03/28 10:07:48;;;;;;;;;;;;;;;21.31;32.08;98428.91;4101968;28;19937;-63
2024/03/28 10:09:49;;;;;;;;;;;;;;;21.28;31.84;98435.44;4098515;29;19922;-62
2024/03/28 10:11:51;;;;;;;;;;;;;;;21.30;31.79;98451.31;4092871;28;20352;-62
2024/03/28 10:13:53;;;;;;;;;;;;;;;21.29;31.71;98447.81;4108172;28;19922;-62
2024/03/28 10:15:54;;;;;;;;;;;;;;;21.27;31.83;98452.50;4099976;28;19922;-62
2024/03/28 10:17:59;;;;;;;;;;;;;;;21.26;31.59;98460.72;4098925;29;19968;-62
2024/03/28 10:20:00;;;;;;;;;;;;;;;21.22;31.41;98454.88;4110246;28;19925;-62
2024/03/28 10:22:09;;;;;;;;;;;;;;;21.23;31.46;98462.72;4110260;28;20051;-61
2024/03/28 10:24:18;;;;;;;;;;;;;;;21.30;31.72;98460.19;4101889;28;19926;-62
2024/03/28 10:26:19;;;;;;;;;;;;;;;21.28;31.62;98445.34;4098915;29;19952;-61
2024/03/28 10:28:21;;;;;;;;;;;;;;;21.25;31.53;98446.50;4109194;28;19922;-62
2024/03/28 10:30:25;;;;;;;;;;;;;;;21.25;31.66;98454.50;4101273;28;19922;-63
2024/03/28 10:32:27;;;;;;;;;;;;;;;21.28;31.42;98450.69;4098721;29;19923;-63
2024/03/28 10:34:28;;;;;;;;;;;;;;;21.28;31.65;98454.16;4098400;29;20382;-62
2024/03/28 10:36:29;;;;;;;;;;;;;;;21.25;31.34;98459.84;4098176;29;19940;-63
2024/03/28 10:38:30;;;;;;;;;;;;;;;21.27;31.49;98465.06;4098911;29;19927;-63
2024/03/28 10:40:37;;;;;;;;;;;;;;;21.25;31.38;98472.41;4082497;29;19923;-63